Time;durP1;ratioP1;P1;durP2;ratioP2;P2;SDS_P1;SDS_P2;PMS_P1;PMS_P2;Temp;Humidity;BMP_temperature;BMP_pressure;BME280_temperature;BME280_humidity;BME280_pressure;Samples;Min_cycle;Max_cycle;Signal;HPM_P1;HPM_P2
2021/06/29 00:02:09;;;;;;;2.75;2.28;;;22.90;70.80;;;;;;5095206;28;20055;-43
2021/06/29 00:04:34;;;;;;;2.17;1.98;;;22.90;70.80;;;;;;5094452;28;20067;-46
2021/06/29 00:07:00;;;;;;;3.38;2.60;;;22.90;70.70;;;;;;5094485;28;20044;-43
2021/06/29 00:09:26;;;;;;;2.63;2.38;;;22.90;70.80;;;;;;5094072;28;20440;-42
2021/06/29 00:11:52;;;;;;;3.10;2.55;;;22.90;70.80;;;;;;5095437;28;20051;-40
2021/06/29 00:14:18;;;;;;;3.40;2.70;;;22.90;70.80;;;;;;5108850;28;20040;-47
2021/06/29 00:16:43;;;;;;;3.15;2.60;;;22.90;70.80;;;;;;5114073;28;20047;-47
2021/06/29 00:19:09;;;;;;;4.10;2.50;;;22.90;70.80;;;;;;5100799;28;20499;-40
2021/06/29 00:21:35;;;;;;;2.60;2.20;;;22.90;70.80;;;;;;5094400;28;20067;-38
2021/06/29 00:24:01;;;;;;;2.97;2.38;;;22.90;70.80;;;;;;5095230;28;20557;-42
2021/06/29 00:26:27;;;;;;;3.38;2.60;;;22.90;70.80;;;;;;5093987;28;20044;-40
2021/06/29 00:28:52;;;;;;;2.42;2.20;;;22.90;70.80;;;;;;5093802;28;20408;-41
2021/06/29 00:31:19;;;;;;;3.53;2.50;;;22.90;70.80;;;;;;5093350;28;20051;-41
2021/06/29 00:33:45;;;;;;;2.45;2.25;;;22.90;70.80;;;;;;5094946;28;20418;-41
2021/06/29 00:36:15;;;;;;;2.97;2.10;;;22.90;70.80;;;;;;5093717;28;20216;-47
2021/06/29 00:38:41;;;;;;;2.40;2.20;;;22.90;70.80;;;;;;5093701;28;20528;-40
2021/06/29 00:41:07;;;;;;;3.75;2.60;;;22.90;70.80;;;;;;5112734;28;20054;-42
2021/06/29 00:43:33;;;;;;;3.05;2.30;;;22.90;70.80;;;;;;5111865;28;20044;-40
2021/06/29 00:45:58;;;;;;;4.20;2.55;;;22.90;70.80;;;;;;5100287;28;20044;-40
2021/06/29 00:48:24;;;;;;;4.30;2.30;;;22.80;70.80;;;;;;5093044;28;20048;-38
2021/06/29 00:50:50;;;;;;;2.30;2.10;;;22.80;70.80;;;;;;5101593;28;20492;-41
2021/06/29 00:53:16;;;;;;;2.75;2.20;;;22.90;71.50;;;;;;5093478;28;20100;-39
2021/06/29 00:55:42;;;;;;;2.58;2.38;;;22.80;70.80;;;;;;5094567;28;20063;-44
2021/06/29 00:58:10;;;;;;;3.70;2.28;;;22.80;70.80;;;;;;5093289;28;20048;-40
2021/06/29 01:00:37;;;;;;;2.78;2.35;;;22.80;70.80;;;;;;5103100;28;20181;-40
2021/06/29 01:03:04;;;;;;;2.30;2.03;;;22.90;70.80;;;;;;5102251;28;20070;-42
2021/06/29 01:05:30;;;;;;;4.15;2.42;;;22.80;70.80;;;;;;5094329;28;20040;-44
2021/06/29 01:07:56;;;;;;;2.70;2.22;;;22.80;70.80;;;;;;5093238;28;20084;-41
2021/06/29 01:10:22;;;;;;;3.55;2.38;;;22.80;70.90;;;;;;5094429;28;20083;-41
2021/06/29 01:12:52;;;;;;;2.92;2.30;;;22.80;70.90;;;;;;5098950;28;20043;-45
2021/06/29 01:15:23;;;;;;;3.03;2.50;;;22.80;70.90;;;;;;5112586;28;20051;-40
2021/06/29 01:17:53;;;;;;;4.07;2.25;;;22.80;70.90;;;;;;5113575;28;20082;-40
2021/06/29 01:20:24;;;;;;;3.40;2.17;;;22.80;70.90;;;;;;5111665;28;20085;-49
2021/06/29 01:22:54;;;;;;;2.80;2.20;;;22.80;70.90;;;;;;5085175;28;20052;-37
2021/06/29 01:25:22;;;;;;;3.00;2.20;;;22.80;70.90;;;;;;5110460;28;20157;-41
2021/06/29 01:32:45;;;;;;;3.50;2.40;;;22.80;70.90;;;;;;5113211;28;20035;-40
2021/06/29 01:35:11;;;;;;;2.67;2.00;;;22.80;70.90;;;;;;5105420;28;20048;-42
2021/06/29 01:37:38;;;;;;;3.25;2.20;;;22.80;71.00;;;;;;5092986;28;20044;-41
2021/06/29 01:40:10;;;;;;;3.30;2.30;;;22.80;71.00;;;;;;5092916;28;20488;-41
2021/06/29 01:42:36;;;;;;;2.92;2.40;;;22.80;71.00;;;;;;5092628;28;20418;-40
2021/06/29 01:45:04;;;;;;;4.40;2.53;;;22.80;71.00;;;;;;5093507;28;20050;-43
2021/06/29 01:50:24;;;;;;;2.47;1.90;;;22.80;71.00;;;;;;5038297;28;20041;-39
2021/06/29 01:52:58;;;;;;;2.72;2.00;;;22.80;71.00;;;;;;5030010;28;20060;-40
2021/06/29 01:55:24;;;;;;;2.28;2.00;;;22.80;71.00;;;;;;5036384;28;20044;-41
2021/06/29 01:57:51;;;;;;;2.22;2.03;;;22.80;71.10;;;;;;5048454;28;20044;-46
2021/06/29 02:00:18;;;;;;;3.30;2.55;;;22.80;71.00;;;;;;5030082;28;20053;-40
2021/06/29 02:02:44;;;;;;;3.78;2.50;;;22.80;71.00;;;;;;5044681;28;20052;-43
2021/06/29 02:05:11;;;;;;;3.10;2.03;;;22.70;71.00;;;;;;5048725;28;20136;-40
2021/06/29 02:07:36;;;;;;;2.72;2.38;;;22.70;71.00;;;;;;5048587;28;20183;-39
2021/06/29 02:10:05;;;;;;;3.45;2.30;;;22.70;71.00;;;;;;5044122;28;20050;-45
2021/06/29 02:12:31;;;;;;;2.40;2.00;;;22.70;71.10;;;;;;5029875;28;20059;-43
2021/06/29 02:14:57;;;;;;;3.30;2.20;;;22.70;71.00;;;;;;5029907;28;20061;-43
2021/06/29 02:17:22;;;;;;;2.30;2.10;;;22.70;71.00;;;;;;5033549;28;20045;-42
2021/06/29 02:19:50;;;;;;;3.30;2.20;;;22.70;71.10;;;;;;5040668;28;20053;-43
2021/06/29 02:22:16;;;;;;;2.45;2.00;;;22.80;71.10;;;;;;5050543;28;20098;-42
2021/06/29 02:24:42;;;;;;;3.33;2.20;;;22.70;71.10;;;;;;5033729;28;20133;-41
2021/06/29 02:27:08;;;;;;;2.75;2.03;;;22.70;71.00;;;;;;5074918;28;20051;-42
2021/06/29 02:29:34;;;;;;;2.85;1.85;;;22.70;71.10;;;;;;5096185;28;20415;-41
2021/06/29 02:32:00;;;;;;;2.30;2.10;;;22.70;71.10;;;;;;5096388;28;20138;-48
2021/06/29 02:34:26;;;;;;;2.85;2.00;;;22.70;71.10;;;;;;5096084;28;20112;-39
2021/06/29 02:36:51;;;;;;;4.43;2.33;;;22.70;71.10;;;;;;5105320;28;20044;-42
2021/06/29 02:39:17;;;;;;;2.30;2.08;;;22.80;71.10;;;;;;5097128;28;20136;-40
2021/06/29 02:41:43;;;;;;;3.35;2.20;;;22.70;71.10;;;;;;5114703;28;20039;-40
2021/06/29 02:44:09;;;;;;;2.75;2.20;;;22.70;71.10;;;;;;5116376;28;20353;-40
2021/06/29 02:46:35;;;;;;;2.20;1.98;;;22.70;71.10;;;;;;5112756;28;20452;-47
2021/06/29 02:49:01;;;;;;;3.67;2.40;;;22.70;71.10;;;;;;5096880;28;20131;-45
2021/06/29 02:51:26;;;;;;;3.45;2.17;;;22.70;71.10;;;;;;5104103;28;20101;-49
2021/06/29 02:53:52;;;;;;;4.45;2.40;;;22.70;71.10;;;;;;5113920;28;20051;-46
2021/06/29 02:59:02;;;;;;;2.97;2.15;;;22.70;71.10;;;;;;5114477;28;20123;-44
2021/06/29 03:01:28;;;;;;;2.92;2.28;;;22.70;71.10;;;;;;5099726;28;20048;-42
2021/06/29 03:03:54;;;;;;;2.97;2.25;;;22.70;71.10;;;;;;5095528;28;20139;-39
2021/06/29 03:06:20;;;;;;;3.50;2.95;;;22.70;71.20;;;;;;5110963;28;20055;-41
2021/06/29 03:08:45;;;;;;;1.92;1.70;;;22.70;71.10;;;;;;5113415;28;20500;-39
2021/06/29 03:11:12;;;;;;;2.50;2.03;;;22.60;71.10;;;;;;5114823;28;20059;-41
2021/06/29 03:13:38;;;;;;;2.60;2.40;;;22.70;71.20;;;;;;5114869;28;20043;-39
2021/06/29 03:16:06;;;;;;;2.10;1.88;;;22.60;71.20;;;;;;5114941;28;20055;-43
2021/06/29 03:18:31;;;;;;;3.03;2.17;;;22.70;71.20;;;;;;5101687;28;20419;-41
2021/06/29 03:20:57;;;;;;;2.83;1.90;;;22.70;71.20;;;;;;5109423;28;20043;-38
2021/06/29 03:23:23;;;;;;;3.97;2.20;;;22.60;71.20;;;;;;5108815;28;20048;-40
2021/06/29 03:25:49;;;;;;;2.00;1.73;;;22.60;71.20;;;;;;5094827;28;20044;-39
2021/06/29 03:28:16;;;;;;;3.13;2.00;;;22.60;71.20;;;;;;5098719;28;20054;-39
2021/06/29 03:30:43;;;;;;;2.67;2.10;;;22.60;71.20;;;;;;5105472;28;20488;-38
2021/06/29 03:33:09;;;;;;;2.63;1.90;;;22.60;71.20;;;;;;5095392;28;20052;-38
2021/06/29 03:35:34;;;;;;;3.20;2.10;;;22.60;71.20;;;;;;5095195;28;20104;-39
2021/06/29 03:38:00;;;;;;;3.13;2.00;;;22.60;71.20;;;;;;5095187;28;20058;-38
2021/06/29 03:40:26;;;;;;;3.13;2.22;;;22.60;71.20;;;;;;5102667;28;20479;-42
2021/06/29 03:42:52;;;;;;;2.92;2.10;;;22.60;71.20;;;;;;5114102;28;20047;-39
2021/06/29 03:45:18;;;;;;;2.13;1.83;;;22.60;71.20;;;;;;5108054;28;20115;-39
2021/06/29 03:47:44;;;;;;;2.85;1.65;;;22.60;71.20;;;;;;5095026;28;20048;-39
2021/06/29 03:50:12;;;;;;;2.80;1.90;;;22.60;71.20;;;;;;5103013;28;20073;-39
2021/06/29 03:52:38;;;;;;;3.75;2.13;;;22.60;71.20;;;;;;5097267;28;20488;-40
2021/06/29 03:55:07;;;;;;;2.97;1.98;;;22.60;71.20;;;;;;5101557;28;20043;-41
2021/06/29 03:57:33;;;;;;;2.15;1.85;;;22.60;71.20;;;;;;5094975;28;20076;-38
2021/06/29 03:59:59;;;;;;;2.15;1.90;;;22.60;71.20;;;;;;5107076;28;20047;-39
2021/06/29 04:02:24;;;;;;;5.45;2.15;;;22.60;71.20;;;;;;5113212;28;20097;-39
2021/06/29 04:04:51;;;;;;;2.55;2.03;;;22.60;71.90;;;;;;5114749;28;20039;-39
2021/06/29 04:07:17;;;;;;;2.30;1.90;;;22.60;71.20;;;;;;5104134;28;20549;-39
2021/06/29 04:09:43;;;;;;;2.35;1.95;;;22.60;71.20;;;;;;5095316;28;20412;-39
2021/06/29 04:12:09;;;;;;;3.65;2.22;;;22.60;71.20;;;;;;5093962;28;20044;-40
2021/06/29 04:14:36;;;;;;;4.35;2.13;;;22.60;71.20;;;;;;5096694;28;20135;-39
2021/06/29 04:17:01;;;;;;;2.47;1.67;;;22.60;71.20;;;;;;5101230;28;20079;-40
2021/06/29 04:19:27;;;;;;;2.78;1.90;;;22.60;71.20;;;;;;5078843;28;20669;-39
2021/06/29 04:21:53;;;;;;;2.67;2.17;;;22.60;71.20;;;;;;5099235;28;20044;-39
2021/06/29 04:24:19;;;;;;;4.55;1.90;;;22.60;71.30;;;;;;5111274;28;20043;-39
2021/06/29 04:26:47;;;;;;;2.05;1.65;;;22.60;71.20;;;;;;5093562;28;20048;-39
2021/06/29 04:29:12;;;;;;;3.47;2.22;;;22.60;71.30;;;;;;5093860;28;20067;-40
2021/06/29 04:31:38;;;;;;;2.53;1.88;;;22.60;71.30;;;;;;5112576;28;20078;-39
2021/06/29 04:34:04;;;;;;;3.70;2.28;;;22.60;71.20;;;;;;5112625;28;20043;-39
2021/06/29 04:36:34;;;;;;;3.33;1.98;;;22.60;71.30;;;;;;5113934;28;20072;-39
2021/06/29 04:39:00;;;;;;;3.10;2.20;;;22.60;71.20;;;;;;5113603;28;20139;-41
2021/06/29 04:41:26;;;;;;;2.13;1.90;;;22.60;71.30;;;;;;5098203;28;20086;-40
2021/06/29 04:43:53;;;;;;;2.40;1.80;;;22.50;71.20;;;;;;5113801;28;20054;-39
2021/06/29 04:46:20;;;;;;;3.03;1.88;;;22.60;71.20;;;;;;5112377;28;20146;-39
2021/06/29 04:48:46;;;;;;;2.10;1.90;;;22.60;71.30;;;;;;5113867;28;20500;-41
2021/06/29 04:51:12;;;;;;;2.47;2.08;;;22.60;71.30;;;;;;5104880;28;20124;-39
2021/06/29 04:53:37;;;;;;;2.10;1.80;;;22.60;71.30;;;;;;5096930;28;20046;-40
2021/06/29 04:56:16;;;;;;;2.15;1.77;;;22.60;71.30;;;;;;5094154;28;20131;-40
2021/06/29 04:58:57;;;;;;;2.70;2.15;;;22.60;71.30;;;;;;5093174;28;20056;-40
2021/06/29 05:01:23;;;;;;;3.50;2.20;;;22.60;71.30;;;;;;5093360;28;20051;-40
2021/06/29 05:03:49;;;;;;;2.35;2.05;;;22.60;71.30;;;;;;5093354;28;20052;-38
2021/06/29 05:06:16;;;;;;;2.20;1.70;;;22.60;71.30;;;;;;5094389;28;20078;-40
2021/06/29 05:08:42;;;;;;;1.95;1.70;;;22.60;71.30;;;;;;5093751;28;20044;-39
2021/06/29 05:11:08;;;;;;;2.88;1.80;;;22.60;71.30;;;;;;5101802;28;20039;-39
2021/06/29 05:13:34;;;;;;;3.05;1.90;;;22.60;71.30;;;;;;5113053;28;20053;-44
2021/06/29 05:15:59;;;;;;;2.15;1.80;;;22.60;71.30;;;;;;5109422;28;20047;-38
2021/06/29 05:18:25;;;;;;;3.50;2.03;;;22.60;71.30;;;;;;5113328;28;20058;-39
2021/06/29 05:20:51;;;;;;;2.65;2.00;;;22.60;71.30;;;;;;5099838;28;20543;-38
2021/06/29 05:23:17;;;;;;;2.10;1.80;;;22.60;71.30;;;;;;5105964;28;20514;-38
2021/06/29 05:25:43;;;;;;;2.35;1.80;;;22.60;71.30;;;;;;5101985;28;20067;-40
2021/06/29 05:28:09;;;;;;;2.42;2.08;;;22.60;71.30;;;;;;5093972;28;20496;-41
2021/06/29 05:30:35;;;;;;;2.65;1.88;;;22.60;71.30;;;;;;5092332;28;20044;-39
2021/06/29 05:33:01;;;;;;;2.75;2.03;;;22.60;71.30;;;;;;5092696;28;20416;-39
2021/06/29 05:35:27;;;;;;;2.15;1.80;;;22.60;71.30;;;;;;5101241;28;20478;-39
2021/06/29 05:37:52;;;;;;;2.03;1.60;;;22.60;71.30;;;;;;5110993;28;20452;-39
2021/06/29 05:40:18;;;;;;;2.40;2.20;;;22.60;71.20;;;;;;5104823;28;20466;-40
2021/06/29 05:42:43;;;;;;;1.98;1.77;;;22.60;71.30;;;;;;5092345;28;20373;-36
2021/06/29 05:45:13;;;;;;;2.35;1.80;;;22.60;71.30;;;;;;5112385;28;20062;-39
2021/06/29 05:47:39;;;;;;;3.22;1.92;;;22.60;71.30;;;;;;5112090;28;20051;-38
2021/06/29 05:50:11;;;;;;;2.38;1.90;;;22.50;71.20;;;;;;5101568;28;20094;-39
2021/06/29 05:52:38;;;;;;;4.40;1.58;;;22.60;71.30;;;;;;5110060;28;20051;-40
2021/06/29 05:55:05;;;;;;;1.90;1.70;;;22.60;71.30;;;;;;5112765;28;20122;-46
2021/06/29 05:57:31;;;;;;;2.25;2.00;;;22.60;71.30;;;;;;5112635;28;20048;-42
2021/06/29 05:59:57;;;;;;;3.42;2.38;;;22.60;71.30;;;;;;5110651;28;20047;-42
2021/06/29 06:02:22;;;;;;;2.25;1.77;;;22.50;71.80;;;;;;5112171;28;20043;-45
2021/06/29 06:04:48;;;;;;;2.85;2.05;;;22.50;71.20;;;;;;5112778;28;20564;-42
2021/06/29 06:07:14;;;;;;;2.47;1.90;;;22.60;71.30;;;;;;5111540;28;20079;-40
2021/06/29 06:09:39;;;;;;;2.25;2.05;;;22.60;71.30;;;;;;5110551;28;20052;-41
2021/06/29 06:12:06;;;;;;;2.88;2.20;;;22.60;71.30;;;;;;5112599;28;20047;-39
2021/06/29 06:14:31;;;;;;;2.83;1.70;;;22.50;71.20;;;;;;5110648;28;20043;-40
2021/06/29 06:16:57;;;;;;;3.10;1.90;;;22.50;71.20;;;;;;5112382;28;20503;-40
2021/06/29 06:19:23;;;;;;;2.67;2.10;;;22.50;71.20;;;;;;5110737;28;20479;-39
2021/06/29 06:21:49;;;;;;;2.70;1.90;;;22.50;71.20;;;;;;5111519;28;20126;-42
2021/06/29 06:24:16;;;;;;;1.95;1.63;;;22.50;71.20;;;;;;5112036;28;20085;-41
2021/06/29 06:26:42;;;;;;;2.28;1.65;;;22.50;71.20;;;;;;5112413;28;20052;-38
2021/06/29 06:29:07;;;;;;;2.40;1.83;;;22.50;71.20;;;;;;5103398;28;20051;-38
2021/06/29 06:31:41;;;;;;;3.47;1.92;;;22.50;71.20;;;;;;5109191;28;20479;-40
2021/06/29 06:34:07;;;;;;;2.65;2.10;;;22.50;71.20;;;;;;5112368;28;20135;-39
2021/06/29 06:36:36;;;;;;;3.25;2.00;;;22.50;71.20;;;;;;5112273;28;20243;-42
2021/06/29 06:39:03;;;;;;;3.53;2.08;;;22.50;71.20;;;;;;5112134;28;20154;-41
2021/06/29 06:41:28;;;;;;;2.45;2.00;;;22.50;71.20;;;;;;5112502;28;20231;-48
2021/06/29 06:43:54;;;;;;;2.08;1.80;;;22.50;71.20;;;;;;5112184;28;20557;-38
2021/06/29 06:46:20;;;;;;;2.28;1.83;;;22.60;71.20;;;;;;5112578;28;20055;-40
2021/06/29 06:48:47;;;;;;;2.63;1.88;;;22.50;71.20;;;;;;5111768;28;20123;-37
2021/06/29 06:51:33;;;;;;;2.47;2.00;;;22.50;71.20;;;;;;5097264;28;20051;-39
2021/06/29 06:53:59;;;;;;;3.05;2.22;;;22.60;71.30;;;;;;5112178;28;20055;-47
2021/06/29 06:56:25;;;;;;;2.42;2.08;;;22.50;71.20;;;;;;5112314;28;20091;-44
2021/06/29 06:58:50;;;;;;;2.70;1.88;;;22.50;71.20;;;;;;5112175;28;20044;-43
2021/06/29 07:01:17;;;;;;;2.13;1.70;;;22.50;71.20;;;;;;5112452;28;20043;-40
2021/06/29 07:03:44;;;;;;;2.13;1.92;;;22.50;71.20;;;;;;5114635;28;20578;-40
2021/06/29 07:06:11;;;;;;;3.00;2.00;;;22.50;71.20;;;;;;5116225;28;20130;-41
2021/06/29 07:08:38;;;;;;;3.53;2.28;;;22.50;71.20;;;;;;5115857;28;20108;-40
2021/06/29 07:11:03;;;;;;;3.65;2.40;;;22.50;71.20;;;;;;5115755;28;20044;-40
2021/06/29 07:13:30;;;;;;;3.47;2.10;;;22.50;71.20;;;;;;5115712;28;20044;-38
2021/06/29 07:15:56;;;;;;;2.53;1.90;;;22.50;71.20;;;;;;5115305;28;20192;-38
2021/06/29 07:18:22;;;;;;;2.50;2.00;;;22.50;71.20;;;;;;5115800;28;20108;-39
2021/06/29 07:20:48;;;;;;;2.85;2.00;;;22.50;71.20;;;;;;5116323;28;20122;-38
2021/06/29 07:23:15;;;;;;;2.25;2.05;;;22.50;71.20;;;;;;5115724;28;20142;-38
2021/06/29 07:25:41;;;;;;;3.95;2.00;;;22.50;71.20;;;;;;5115932;28;20130;-42
2021/06/29 07:28:07;;;;;;;2.55;1.85;;;22.50;71.20;;;;;;5096977;28;20155;-40
2021/06/29 07:30:34;;;;;;;2.72;2.05;;;22.50;71.20;;;;;;5115787;28;20397;-38
2021/06/29 07:33:00;;;;;;;3.00;1.90;;;22.50;71.20;;;;;;5115776;28;20101;-45
2021/06/29 07:35:28;;;;;;;2.95;2.03;;;22.50;71.20;;;;;;5115256;28;20048;-41
2021/06/29 07:37:54;;;;;;;2.35;1.70;;;22.50;71.20;;;;;;5115378;28;20130;-38
2021/06/29 07:40:20;;;;;;;2.95;2.50;;;22.50;71.20;;;;;;5115795;28;20126;-38
2021/06/29 07:42:46;;;;;;;3.33;1.98;;;22.50;71.20;;;;;;5115515;28;20685;-39
2021/06/29 07:45:13;;;;;;;2.72;2.00;;;22.50;71.20;;;;;;5097289;28;20040;-43
2021/06/29 07:47:39;;;;;;;3.75;2.03;;;22.50;71.20;;;;;;5114088;28;20047;-41
2021/06/29 07:50:07;;;;;;;2.42;2.00;;;22.50;71.20;;;;;;5113521;28;20046;-41
2021/06/29 07:52:34;;;;;;;4.47;2.33;;;22.50;71.20;;;;;;5114492;28;20105;-37
2021/06/29 07:54:59;;;;;;;2.60;2.00;;;22.50;71.20;;;;;;5114143;28;20056;-47
2021/06/29 07:57:25;;;;;;;2.78;1.92;;;22.50;71.20;;;;;;5114551;28;20055;-42
2021/06/29 07:59:51;;;;;;;2.20;2.00;;;22.50;71.20;;;;;;5113358;28;20039;-38
2021/06/29 08:02:16;;;;;;;2.58;2.22;;;22.50;71.20;;;;;;5113233;28;20048;-42
2021/06/29 08:04:43;;;;;;;2.55;2.03;;;22.50;71.20;;;;;;5114016;28;20403;-40
2021/06/29 08:07:10;;;;;;;3.08;2.17;;;22.50;71.20;;;;;;5113044;28;20108;-40
2021/06/29 08:09:35;;;;;;;2.28;1.70;;;22.60;71.30;;;;;;5114116;28;20066;-40
2021/06/29 08:12:03;;;;;;;2.45;2.10;;;22.50;71.20;;;;;;5113929;28;20043;-40
2021/06/29 08:14:29;;;;;;;2.60;1.83;;;22.50;71.20;;;;;;5112975;28;20560;-42
2021/06/29 08:16:55;;;;;;;2.03;1.65;;;22.50;71.20;;;;;;5113995;28;20040;-37
2021/06/29 08:19:20;;;;;;;2.65;2.00;;;22.50;71.20;;;;;;5114141;28;20043;-40
2021/06/29 08:21:46;;;;;;;2.10;1.77;;;22.50;71.20;;;;;;5113584;28;20043;-37
2021/06/29 08:24:12;;;;;;;3.17;2.00;;;22.40;71.10;;;;;;5113493;28;20044;-43
2021/06/29 08:26:38;;;;;;;4.15;2.50;;;22.50;71.20;;;;;;5113713;28;20051;-40
2021/06/29 08:29:03;;;;;;;3.20;2.35;;;22.50;71.20;;;;;;5113768;28;20047;-38
2021/06/29 08:31:29;;;;;;;3.20;2.47;;;22.50;71.20;;;;;;5095567;28;20046;-44
2021/06/29 08:33:55;;;;;;;4.78;2.50;;;22.50;71.20;;;;;;5113591;28;20043;-40
2021/06/29 08:36:22;;;;;;;3.22;1.90;;;22.50;71.20;;;;;;5113457;28;20064;-43
2021/06/29 08:38:49;;;;;;;3.22;2.33;;;22.50;71.90;;;;;;5113144;28;20071;-37
2021/06/29 08:41:15;;;;;;;2.65;2.30;;;22.50;71.20;;;;;;5113606;28;20070;-37
2021/06/29 08:43:41;;;;;;;3.42;2.22;;;22.50;71.20;;;;;;5113783;28;20522;-39
2021/06/29 08:46:09;;;;;;;3.30;2.10;;;22.50;71.20;;;;;;5113575;28;20062;-39
2021/06/29 08:48:36;;;;;;;3.38;2.00;;;22.50;71.20;;;;;;5113278;28;20074;-42
2021/06/29 08:51:05;;;;;;;4.47;2.42;;;22.50;71.20;;;;;;5113841;28;20043;-44
2021/06/29 08:53:32;;;;;;;3.47;2.30;;;22.50;71.20;;;;;;5113445;28;20051;-38
2021/06/29 08:55:58;;;;;;;3.58;2.50;;;22.50;71.20;;;;;;5113700;28;20044;-39
2021/06/29 08:58:24;;;;;;;3.38;2.40;;;22.50;71.20;;;;;;5113826;28;20043;-38
2021/06/29 09:00:52;;;;;;;3.10;2.45;;;22.50;71.20;;;;;;5114015;28;20444;-39
2021/06/29 09:03:18;;;;;;;3.50;2.40;;;22.50;71.20;;;;;;5113654;28;20067;-46
2021/06/29 09:05:49;;;;;;;3.85;2.33;;;22.50;71.20;;;;;;5113855;28;20070;-40
2021/06/29 09:08:19;;;;;;;2.47;2.15;;;22.50;71.20;;;;;;5112887;28;20108;-40
2021/06/29 09:11:13;;;;;;;3.45;2.28;;;22.50;71.20;;;;;;5111482;28;20399;-39
2021/06/29 09:13:40;;;;;;;3.90;2.20;;;22.50;71.10;;;;;;5110336;28;20056;-39
2021/06/29 09:16:06;;;;;;;4.03;2.40;;;22.60;71.20;;;;;;5113526;28;20130;-40
2021/06/29 09:18:35;;;;;;;3.15;2.30;;;22.50;71.10;;;;;;5113609;28;20055;-37
2021/06/29 09:21:03;;;;;;;3.35;2.17;;;22.50;71.20;;;;;;5113444;28;20047;-39
2021/06/29 09:23:33;;;;;;;2.65;2.00;;;22.50;71.20;;;;;;5112840;28;20544;-40
2021/06/29 09:26:00;;;;;;;4.90;2.63;;;22.50;71.20;;;;;;5113211;28;20043;-38
2021/06/29 09:28:29;;;;;;;3.47;2.50;;;22.50;71.20;;;;;;5113296;28;20051;-41
2021/06/29 09:31:05;;;;;;;37.95;16.77;;;22.50;71.20;;;;;;5113361;28;20054;-42
2021/06/29 09:33:37;;;;;;;40.55;17.05;;;22.50;71.70;;;;;;5113413;28;20052;-43
2021/06/29 09:36:10;;;;;;;37.47;16.77;;;22.30;72.50;;;;;;5113257;28;20044;-42
2021/06/29 09:38:38;;;;;;;37.30;17.55;;;22.10;73.10;;;;;;5101472;28;20048;-44
2021/06/29 09:41:28;;;;;;;40.95;18.25;;;22.00;73.60;;;;;;5107905;28;20130;-43
2021/06/29 09:44:01;;;;;;;37.80;16.23;;;22.00;73.90;;;;;;5112562;28;20104;-48
2021/06/29 09:46:27;;;;;;;34.97;15.73;;;22.00;74.50;;;;;;5112760;28;20047;-44
2021/06/29 09:48:56;;;;;;;33.53;14.40;;;22.00;73.80;;;;;;5112447;28;20441;-46
2021/06/29 09:51:27;;;;;;;35.53;15.57;;;22.10;73.70;;;;;;5113062;28;20051;-44
2021/06/29 09:53:55;;;;;;;34.05;16.25;;;22.10;73.60;;;;;;5112260;28;20388;-45
2021/06/29 09:56:23;;;;;;;27.95;15.95;;;22.20;73.60;;;;;;5112568;28;20039;-42
2021/06/29 09:58:55;;;;;;;28.95;14.77;;;22.20;73.50;;;;;;5112178;28;20556;-42
2021/06/29 10:01:25;;;;;;;28.15;14.60;;;22.20;73.30;;;;;;5112344;28;20405;-44
2021/06/29 10:03:52;;;;;;;31.40;14.75;;;22.30;73.30;;;;;;5113290;28;20130;-48
2021/06/29 10:06:20;;;;;;;25.33;13.30;;;22.30;73.20;;;;;;5112864;28;20043;-45
2021/06/29 10:08:51;;;;;;;25.52;12.93;;;22.30;73.10;;;;;;5111528;28;20119;-46
2021/06/29 10:11:31;;;;;;;26.63;13.48;;;22.30;73.00;;;;;;5112314;28;20046;-46
2021/06/29 10:14:02;;;;;;;21.65;12.75;;;22.30;72.90;;;;;;5112938;28;20051;-41
2021/06/29 10:16:39;;;;;;;24.85;13.50;;;22.30;72.80;;;;;;5111846;28;20044;-44
2021/06/29 10:21:39;;;;;;;24.65;13.80;;;22.40;72.60;;;;;;5111163;28;20044;-41
2021/06/29 10:24:08;;;;;;;24.50;12.80;;;22.40;72.60;;;;;;5109643;28;20040;-41
2021/06/29 10:26:39;;;;;;;20.35;11.70;;;22.40;72.50;;;;;;5111839;28;20487;-45
2021/06/29 10:29:10;;;;;;;21.23;12.30;;;22.40;72.50;;;;;;5106770;28;20479;-46
2021/06/29 10:31:42;;;;;;;22.50;12.50;;;22.40;72.50;;;;;;5112385;28;20572;-43
2021/06/29 10:34:10;;;;;;;17.70;11.05;;;22.40;72.40;;;;;;5109693;28;20106;-43
2021/06/29 10:36:39;;;;;;;21.50;11.90;;;22.40;72.30;;;;;;5111361;28;20040;-46
2021/06/29 10:39:06;;;;;;;20.08;11.57;;;22.40;72.20;;;;;;5112839;28;20110;-44
2021/06/29 10:41:39;;;;;;;20.52;10.95;;;22.40;72.20;;;;;;5116072;28;20151;-42
2021/06/29 10:44:13;;;;;;;19.10;11.27;;;22.50;72.20;;;;;;5115282;28;20047;-42
2021/06/29 10:46:44;;;;;;;18.17;11.43;;;22.50;72.20;;;;;;5113834;28;20036;-42
2021/06/29 10:49:32;;;;;;;19.50;10.75;;;22.50;72.10;;;;;;5115857;28;20055;-45
2021/06/29 10:52:04;;;;;;;17.25;10.38;;;22.50;72.00;;;;;;5113435;28;20055;-43
2021/06/29 10:54:46;;;;;;;17.13;10.68;;;22.50;72.10;;;;;;5116534;28;20127;-49
2021/06/29 10:57:16;;;;;;;15.65;10.32;;;22.50;72.00;;;;;;5115440;28;20075;-47
2021/06/29 10:59:46;;;;;;;17.23;10.57;;;22.50;72.00;;;;;;5115757;28;20054;-45
2021/06/29 11:02:26;;;;;;;15.75;10.38;;;22.50;72.00;;;;;;5116222;28;20058;-44
2021/06/29 11:04:55;;;;;;;17.50;10.32;;;22.50;71.90;;;;;;5116441;28;20047;-46
2021/06/29 11:07:29;;;;;;;17.65;10.20;;;22.50;71.90;;;;;;5113766;28;20413;-46
2021/06/29 11:10:06;;;;;;;16.67;9.67;;;22.50;71.80;;;;;;5115514;28;20139;-45
2021/06/29 11:12:53;;;;;;;18.30;10.00;;;22.50;71.80;;;;;;5116146;28;20626;-47
2021/06/29 11:15:39;;;;;;;18.27;9.48;;;22.50;71.80;;;;;;5115324;28;20150;-48
2021/06/29 11:18:05;;;;;;;13.13;8.90;;;22.50;71.80;;;;;;5114529;28;20046;-48
2021/06/29 11:20:53;;;;;;;34.65;15.85;;;22.50;71.70;;;;;;5115007;28;20046;-50
2021/06/29 11:23:32;;;;;;;25.50;13.77;;;22.50;72.00;;;;;;5114425;28;20051;-48
2021/06/29 11:26:07;;;;;;;25.05;12.90;;;22.40;72.30;;;;;;5111639;28;20047;-44
2021/06/29 11:28:35;;;;;;;27.00;13.15;;;22.40;72.50;;;;;;5109061;28;20044;-48
2021/06/29 11:31:03;;;;;;;28.13;15.00;;;22.40;72.60;;;;;;5114694;28;20114;-46
2021/06/29 11:33:48;;;;;;;26.65;13.95;;;22.40;72.70;;;;;;5112903;28;20100;-44
2021/06/29 11:36:25;;;;;;;24.65;13.35;;;22.40;72.80;;;;;;5112929;28;20047;-41
2021/06/29 11:39:13;;;;;;;22.45;13.20;;;22.40;72.80;;;;;;5114040;28;20039;-45
2021/06/29 11:41:40;;;;;;;25.80;13.40;;;22.40;72.80;;;;;;5113834;28;20705;-48
2021/06/29 11:44:08;;;;;;;27.25;13.43;;;22.40;72.90;;;;;;5114058;28;20039;-48
2021/06/29 11:47:05;;;;;;;28.08;13.85;;;22.40;72.90;;;;;;5115532;28;20127;-46
2021/06/29 11:49:31;;;;;;;30.38;14.15;;;22.40;72.90;;;;;;5080726;28;20044;-47
2021/06/29 11:52:13;;;;;;;27.63;14.18;;;22.40;72.90;;;;;;5094006;28;20048;-46
2021/06/29 11:54:59;;;;;;;27.48;12.98;;;22.40;73.00;;;;;;5095136;28;20101;-44
2021/06/29 11:57:25;;;;;;;24.58;13.25;;;22.40;73.00;;;;;;5094760;28;20048;-48
2021/06/29 11:59:54;;;;;;;26.83;14.15;;;22.40;73.00;;;;;;5103044;28;20565;-48
2021/06/29 12:02:28;;;;;;;27.48;13.93;;;22.40;73.10;;;;;;5114860;28;20506;-46
2021/06/29 12:05:01;;;;;;;28.00;14.33;;;22.40;73.10;;;;;;5115123;28;20043;-51
2021/06/29 12:07:34;;;;;;;28.33;13.73;;;22.40;73.20;;;;;;5113959;28;20155;-53
2021/06/29 12:10:02;;;;;;;27.08;13.80;;;22.40;73.30;;;;;;5101857;28;20047;-42
2021/06/29 12:12:28;;;;;;;25.27;13.85;;;22.40;73.20;;;;;;5103983;28;20048;-44
2021/06/29 12:15:16;;;;;;;23.60;12.52;;;22.40;73.10;;;;;;5114277;28;20073;-42
2021/06/29 12:18:07;;;;;;;21.67;10.85;;;22.50;73.00;;;;;;5114248;28;20480;-45
2021/06/29 12:20:38;;;;;;;22.30;11.73;;;22.50;73.00;;;;;;5011335;28;20061;-49
2021/06/29 12:23:07;;;;;;;20.25;10.63;;;22.50;72.90;;;;;;5010973;28;20089;-53
2021/06/29 12:25:34;;;;;;;21.83;11.60;;;22.50;72.90;;;;;;5011792;28;20136;-52
2021/06/29 12:28:09;;;;;;;17.77;11.32;;;22.50;72.80;;;;;;5009510;28;20151;-45
2021/06/29 12:30:40;;;;;;;14.87;10.53;;;22.50;72.70;;;;;;5001787;28;20161;-46
2021/06/29 12:33:36;;;;;;;19.85;10.73;;;22.50;72.60;;;;;;5011210;28;20140;-42
2021/06/29 12:36:04;;;;;;;;;;;22.50;72.50;;;;;;4934022;29;20134;-41
2021/06/29 12:38:33;;;;;;;20.05;10.00;;;22.50;72.30;;;;;;4933982;29;19961;-45
2021/06/29 12:41:08;;;;;;;21.10;10.88;;;22.50;72.50;;;;;;4934292;29;20055;-44
2021/06/29 12:43:39;;;;;;;16.23;9.68;;;22.50;72.40;;;;;;4933264;29;20067;-44
2021/06/29 12:46:26;;;;;;;16.73;9.63;;;22.50;72.40;;;;;;4943639;28;20380;-48
2021/06/29 12:49:26;;;;;;;18.02;9.70;;;22.50;72.30;;;;;;4951760;29;20055;-43
2021/06/29 12:51:55;;;;;;;19.17;10.57;;;22.50;72.20;;;;;;4894323;29;20161;-43
2021/06/29 12:54:22;;;;;;;13.48;9.13;;;22.50;72.20;;;;;;4895313;29;20049;-45
2021/06/29 12:56:59;;;;;;;16.63;9.63;;;22.50;72.20;;;;;;4902595;29;20055;-43
2021/06/29 12:59:29;;;;;;;15.05;9.50;;;22.50;72.20;;;;;;4933086;29;20184;-51
2021/06/29 13:02:01;;;;;;;17.83;10.10;;;22.50;72.20;;;;;;4933743;29;20077;-47
2021/06/29 13:04:42;;;;;;;14.10;9.23;;;22.50;72.10;;;;;;4932493;29;20066;-46